sensor_id;sensor_type;location;lat;lon;timestamp;pressure;altitude;pressure_sealevel;temperature
66180;BMP280;52986;44.028;20.466;2023-07-16T00:00:55;98154.56;;;22.62
66180;BMP280;52986;44.028;20.466;2023-07-16T00:03:20;98152.16;;;22.58
66180;BMP280;52986;44.028;20.466;2023-07-16T00:05:49;98150.19;;;22.59
66180;BMP280;52986;44.028;20.466;2023-07-16T00:08:15;98155.63;;;22.59
66180;BMP280;52986;44.028;20.466;2023-07-16T00:10:40;98159.19;;;22.54
66180;BMP280;52986;44.028;20.466;2023-07-16T00:13:05;98154.16;;;22.58
66180;BMP280;52986;44.028;20.466;2023-07-16T00:15:31;98154.91;;;22.58
66180;BMP280;52986;44.028;20.466;2023-07-16T00:17:56;98150.34;;;22.48
66180;BMP280;52986;44.028;20.466;2023-07-16T00:20:22;98153.59;;;22.46
66180;BMP280;52986;44.028;20.466;2023-07-16T00:22:49;98151.69;;;22.41
66180;BMP280;52986;44.028;20.466;2023-07-16T00:25:15;98150.28;;;22.34
66180;BMP280;52986;44.028;20.466;2023-07-16T00:27:40;98151.97;;;22.37
66180;BMP280;52986;44.028;20.466;2023-07-16T00:30:06;98152.50;;;22.36
66180;BMP280;52986;44.028;20.466;2023-07-16T00:32:32;98151.31;;;22.31
66180;BMP280;52986;44.028;20.466;2023-07-16T00:34:58;98150.06;;;22.32
66180;BMP280;52986;44.028;20.466;2023-07-16T00:37:23;98153.00;;;22.34
66180;BMP280;52986;44.028;20.466;2023-07-16T00:39:48;98150.50;;;22.36
66180;BMP280;52986;44.028;20.466;2023-07-16T00:42:14;98148.97;;;22.41
66180;BMP280;52986;44.028;20.466;2023-07-16T00:44:40;98145.50;;;22.41
66180;BMP280;52986;44.028;20.466;2023-07-16T00:47:05;98146.53;;;22.37
66180;BMP280;52986;44.028;20.466;2023-07-16T00:49:31;98144.13;;;22.34
66180;BMP280;52986;44.028;20.466;2023-07-16T00:51:58;98141.88;;;22.32
66180;BMP280;52986;44.028;20.466;2023-07-16T00:54:24;98148.91;;;22.28
66180;BMP280;52986;44.028;20.466;2023-07-16T00:56:49;98139.06;;;22.19
66180;BMP280;52986;44.028;20.466;2023-07-16T00:59:16;98137.41;;;22.16
66180;BMP280;52986;44.028;20.466;2023-07-16T01:01:41;98130.00;;;22.11
66180;BMP280;52986;44.028;20.466;2023-07-16T01:04:06;98130.09;;;22.06
66180;BMP280;52986;44.028;20.466;2023-07-16T01:06:36;98127.38;;;22.06
66180;BMP280;52986;44.028;20.466;2023-07-16T01:09:06;98127.66;;;22.02
66180;BMP280;52986;44.028;20.466;2023-07-16T01:11:32;98127.66;;;22.02
66180;BMP280;52986;44.028;20.466;2023-07-16T01:13:58;98132.16;;;21.99
66180;BMP280;52986;44.028;20.466;2023-07-16T01:16:24;98123.75;;;21.97
66180;BMP280;52986;44.028;20.466;2023-07-16T01:18:50;98124.56;;;21.92
66180;BMP280;52986;44.028;20.466;2023-07-16T01:21:18;98120.44;;;21.86
66180;BMP280;52986;44.028;20.466;2023-07-16T01:24:11;98129.66;;;21.83
66180;BMP280;52986;44.028;20.466;2023-07-16T01:32:13;98131.34;;;21.86
66180;BMP280;52986;44.028;20.466;2023-07-16T01:34:39;98125.91;;;21.86
66180;BMP280;52986;44.028;20.466;2023-07-16T01:37:05;98127.84;;;21.91
66180;BMP280;52986;44.028;20.466;2023-07-16T01:39:31;98127.53;;;21.94
66180;BMP280;52986;44.028;20.466;2023-07-16T01:41:59;98120.88;;;21.90
66180;BMP280;52986;44.028;20.466;2023-07-16T01:44:25;98120.88;;;21.90
66180;BMP280;52986;44.028;20.466;2023-07-16T01:47:05;98114.69;;;21.89
66180;BMP280;52986;44.028;20.466;2023-07-16T01:49:32;98118.50;;;21.81
66180;BMP280;52986;44.028;20.466;2023-07-16T01:51:59;98112.53;;;21.82
66180;BMP280;52986;44.028;20.466;2023-07-16T01:54:25;98113.06;;;21.81
66180;BMP280;52986;44.028;20.466;2023-07-16T01:56:50;98109.69;;;21.75
66180;BMP280;52986;44.028;20.466;2023-07-16T01:59:15;98116.38;;;21.74
66180;BMP280;52986;44.028;20.466;2023-07-16T02:01:41;98110.19;;;21.73
66180;BMP280;52986;44.028;20.466;2023-07-16T02:04:06;98110.47;;;21.70
66180;BMP280;52986;44.028;20.466;2023-07-16T02:06:31;98111.72;;;21.69
66180;BMP280;52986;44.028;20.466;2023-07-16T02:08:57;98111.50;;;21.67
66180;BMP280;52986;44.028;20.466;2023-07-16T02:11:22;98112.00;;;21.65
66180;BMP280;52986;44.028;20.466;2023-07-16T02:13:48;98103.16;;;21.59
66180;BMP280;52986;44.028;20.466;2023-07-16T02:16:13;98106.91;;;21.56
66180;BMP280;52986;44.028;20.466;2023-07-16T02:18:38;98109.47;;;21.48
66180;BMP280;52986;44.028;20.466;2023-07-16T02:21:04;98110.31;;;21.43
66180;BMP280;52986;44.028;20.466;2023-07-16T02:23:29;98107.56;;;21.43
66180;BMP280;52986;44.028;20.466;2023-07-16T02:25:54;98114.00;;;21.40
66180;BMP280;52986;44.028;20.466;2023-07-16T02:28:20;98109.59;;;21.37
66180;BMP280;52986;44.028;20.466;2023-07-16T02:30:45;98109.38;;;21.35
66180;BMP280;52986;44.028;20.466;2023-07-16T02:33:11;98107.09;;;21.39
66180;BMP280;52986;44.028;20.466;2023-07-16T02:35:36;98111.28;;;21.40
66180;BMP280;52986;44.028;20.466;2023-07-16T02:38:01;98111.09;;;21.38
66180;BMP280;52986;44.028;20.466;2023-07-16T02:40:27;98107.91;;;21.34
66180;BMP280;52986;44.028;20.466;2023-07-16T02:42:52;98109.38;;;21.35
66180;BMP280;52986;44.028;20.466;2023-07-16T02:45:18;98114.09;;;21.35
66180;BMP280;52986;44.028;20.466;2023-07-16T02:47:43;98124.44;;;21.36
66180;BMP280;52986;44.028;20.466;2023-07-16T02:50:09;98115.63;;;21.30
66180;BMP280;52986;44.028;20.466;2023-07-16T02:52:34;98129.00;;;21.28
66180;BMP280;52986;44.028;20.466;2023-07-16T02:55:00;98128.28;;;21.27
66180;BMP280;52986;44.028;20.466;2023-07-16T02:57:25;98122.63;;;21.25
66180;BMP280;52986;44.028;20.466;2023-07-16T02:59:51;98129.81;;;21.23
66180;BMP280;52986;44.028;20.466;2023-07-16T03:02:16;98127.09;;;21.23
66180;BMP280;52986;44.028;20.466;2023-07-16T03:04:42;98126.28;;;21.28
66180;BMP280;52986;44.028;20.466;2023-07-16T03:07:07;98131.53;;;21.26
66180;BMP280;52986;44.028;20.466;2023-07-16T03:09:33;98127.31;;;21.25
66180;BMP280;52986;44.028;20.466;2023-07-16T03:11:58;98122.34;;;21.23
66180;BMP280;52986;44.028;20.466;2023-07-16T03:14:23;98121.41;;;21.21
66180;BMP280;52986;44.028;20.466;2023-07-16T03:16:49;98115.75;;;21.19
66180;BMP280;52986;44.028;20.466;2023-07-16T03:19:14;98124.13;;;21.21
66180;BMP280;52986;44.028;20.466;2023-07-16T03:21:39;98126.34;;;21.22
66180;BMP280;52986;44.028;20.466;2023-07-16T03:24:05;98131.38;;;21.18
66180;BMP280;52986;44.028;20.466;2023-07-16T03:26:31;98134.31;;;21.20
66180;BMP280;52986;44.028;20.466;2023-07-16T03:28:56;98128.53;;;21.24
66180;BMP280;52986;44.028;20.466;2023-07-16T03:31:21;98139.72;;;21.26
66180;BMP280;52986;44.028;20.466;2023-07-16T03:33:47;98137.41;;;21.30
66180;BMP280;52986;44.028;20.466;2023-07-16T03:36:12;98136.41;;;21.33
66180;BMP280;52986;44.028;20.466;2023-07-16T03:38:37;98135.91;;;21.35
66180;BMP280;52986;44.028;20.466;2023-07-16T03:41:03;98139.59;;;21.37
66180;BMP280;52986;44.028;20.466;2023-07-16T03:43:28;98132.88;;;21.38
66180;BMP280;52986;44.028;20.466;2023-07-16T03:45:54;98142.31;;;21.37
66180;BMP280;52986;44.028;20.466;2023-07-16T03:48:19;98145.81;;;21.32
66180;BMP280;52986;44.028;20.466;2023-07-16T03:50:44;98139.59;;;21.37
66180;BMP280;52986;44.028;20.466;2023-07-16T03:53:11;98144.47;;;21.44
66180;BMP280;52986;44.028;20.466;2023-07-16T03:55:36;98145.16;;;21.50
66180;BMP280;52986;44.028;20.466;2023-07-16T03:58:02;98147.81;;;21.56
66180;BMP280;52986;44.028;20.466;2023-07-16T04:00:27;98145.50;;;21.60
66180;BMP280;52986;44.028;20.466;2023-07-16T04:02:52;98146.84;;;21.72
66180;BMP280;52986;44.028;20.466;2023-07-16T04:05:18;98147.84;;;21.75
66180;BMP280;52986;44.028;20.466;2023-07-16T04:07:44;98144.44;;;21.87
66180;BMP280;52986;44.028;20.466;2023-07-16T04:10:09;98143.44;;;21.90
66180;BMP280;52986;44.028;20.466;2023-07-16T04:12:35;98143.44;;;21.90
66180;BMP280;52986;44.028;20.466;2023-07-16T04:15:00;98141.22;;;21.89
66180;BMP280;52986;44.028;20.466;2023-07-16T04:17:26;98147.13;;;21.93
66180;BMP280;52986;44.028;20.466;2023-07-16T04:19:51;98143.28;;;22.01
66180;BMP280;52986;44.028;20.466;2023-07-16T04:22:17;98147.66;;;22.10
66180;BMP280;52986;44.028;20.466;2023-07-16T04:24:43;98152.97;;;22.21
66180;BMP280;52986;44.028;20.466;2023-07-16T04:27:08;98154.03;;;22.31
66180;BMP280;52986;44.028;20.466;2023-07-16T04:29:33;98147.69;;;22.42
66180;BMP280;52986;44.028;20.466;2023-07-16T04:31:59;98147.00;;;22.55
66180;BMP280;52986;44.028;20.466;2023-07-16T04:34:24;98160.50;;;22.66
66180;BMP280;52986;44.028;20.466;2023-07-16T04:36:50;98157.13;;;22.73
66180;BMP280;52986;44.028;20.466;2023-07-16T04:39:15;98157.81;;;22.79
66180;BMP280;52986;44.028;20.466;2023-07-16T04:41:40;98158.69;;;22.87
66180;BMP280;52986;44.028;20.466;2023-07-16T04:44:06;98161.44;;;23.00
66180;BMP280;52986;44.028;20.466;2023-07-16T04:46:32;98159.88;;;23.18
66180;BMP280;52986;44.028;20.466;2023-07-16T04:48:57;98159.03;;;23.36
66180;BMP280;52986;44.028;20.466;2023-07-16T04:51:22;98156.84;;;23.61
66180;BMP280;52986;44.028;20.466;2023-07-16T04:53:48;98161.09;;;23.83
66180;BMP280;52986;44.028;20.466;2023-07-16T04:56:15;98161.59;;;24.08
66180;BMP280;52986;44.028;20.466;2023-07-16T04:58:41;98161.66;;;24.36
66180;BMP280;52986;44.028;20.466;2023-07-16T05:01:10;98169.97;;;24.64
66180;BMP280;52986;44.028;20.466;2023-07-16T05:03:36;98164.66;;;24.87
66180;BMP280;52986;44.028;20.466;2023-07-16T05:06:02;98156.97;;;25.07
66180;BMP280;52986;44.028;20.466;2023-07-16T05:08:27;98161.25;;;25.23
66180;BMP280;52986;44.028;20.466;2023-07-16T05:10:53;98161.91;;;25.44
66180;BMP280;52986;44.028;20.466;2023-07-16T05:13:18;98163.63;;;25.55
66180;BMP280;52986;44.028;20.466;2023-07-16T05:15:44;98168.47;;;25.77
66180;BMP280;52986;44.028;20.466;2023-07-16T05:18:10;98169.97;;;25.93
66180;BMP280;52986;44.028;20.466;2023-07-16T05:20:35;98164.53;;;26.16
66180;BMP280;52986;44.028;20.466;2023-07-16T05:23:01;98167.88;;;26.37
66180;BMP280;52986;44.028;20.466;2023-07-16T05:25:27;98175.75;;;26.41
66180;BMP280;52986;44.028;20.466;2023-07-16T05:27:52;98168.22;;;26.34
66180;BMP280;52986;44.028;20.466;2023-07-16T05:30:18;98169.88;;;26.37
66180;BMP280;52986;44.028;20.466;2023-07-16T05:32:43;98170.06;;;26.39
66180;BMP280;52986;44.028;20.466;2023-07-16T05:35:08;98178.16;;;26.67
66180;BMP280;52986;44.028;20.466;2023-07-16T05:37:34;98174.84;;;26.91
66180;BMP280;52986;44.028;20.466;2023-07-16T05:39:59;98178.59;;;27.26
66180;BMP280;52986;44.028;20.466;2023-07-16T05:42:25;98172.88;;;27.40
66180;BMP280;52986;44.028;20.466;2023-07-16T05:44:50;98185.97;;;27.71
66180;BMP280;52986;44.028;20.466;2023-07-16T05:47:15;98183.03;;;28.02
66180;BMP280;52986;44.028;20.466;2023-07-16T05:49:41;98189.84;;;28.01
66180;BMP280;52986;44.028;20.466;2023-07-16T05:52:06;98186.28;;;28.15
66180;BMP280;52986;44.028;20.466;2023-07-16T05:54:32;98196.06;;;28.34
66180;BMP280;52986;44.028;20.466;2023-07-16T05:56:57;98194.22;;;28.61
66180;BMP280;52986;44.028;20.466;2023-07-16T05:59:23;98193.53;;;28.70
66180;BMP280;52986;44.028;20.466;2023-07-16T06:01:48;98193.34;;;29.10
66180;BMP280;52986;44.028;20.466;2023-07-16T06:04:13;98196.34;;;29.39
66180;BMP280;52986;44.028;20.466;2023-07-16T06:06:39;98198.25;;;29.63
66180;BMP280;52986;44.028;20.466;2023-07-16T06:09:04;98199.41;;;29.87
66180;BMP280;52986;44.028;20.466;2023-07-16T06:11:30;98191.81;;;30.14
66180;BMP280;52986;44.028;20.466;2023-07-16T06:13:55;98190.09;;;30.19
66180;BMP280;52986;44.028;20.466;2023-07-16T06:16:21;98188.38;;;30.33
66180;BMP280;52986;44.028;20.466;2023-07-16T06:18:46;98189.59;;;30.49
66180;BMP280;52986;44.028;20.466;2023-07-16T06:21:11;98184.81;;;30.69
66180;BMP280;52986;44.028;20.466;2023-07-16T06:23:38;98191.25;;;30.81
66180;BMP280;52986;44.028;20.466;2023-07-16T06:26:03;98180.00;;;31.27
66180;BMP280;52986;44.028;20.466;2023-07-16T06:28:28;98190.00;;;31.61
66180;BMP280;52986;44.028;20.466;2023-07-16T06:30:54;98174.56;;;31.58
66180;BMP280;52986;44.028;20.466;2023-07-16T06:33:19;98178.50;;;31.45
66180;BMP280;52986;44.028;20.466;2023-07-16T06:35:46;98170.34;;;31.47
66180;BMP280;52986;44.028;20.466;2023-07-16T06:38:15;98174.72;;;31.91
66180;BMP280;52986;44.028;20.466;2023-07-16T06:40:47;98172.28;;;32.16
66180;BMP280;52986;44.028;20.466;2023-07-16T06:43:14;98180.94;;;32.53
66180;BMP280;52986;44.028;20.466;2023-07-16T06:45:39;98179.91;;;32.58
66180;BMP280;52986;44.028;20.466;2023-07-16T06:48:05;98176.94;;;32.66
66180;BMP280;52986;44.028;20.466;2023-07-16T06:50:30;98175.00;;;32.68
66180;BMP280;52986;44.028;20.466;2023-07-16T06:52:55;98180.41;;;33.20
66180;BMP280;52986;44.028;20.466;2023-07-16T06:55:21;98171.25;;;33.41
66180;BMP280;52986;44.028;20.466;2023-07-16T06:57:46;98172.47;;;33.38
66180;BMP280;52986;44.028;20.466;2023-07-16T07:00:11;98175.25;;;33.73
66180;BMP280;52986;44.028;20.466;2023-07-16T07:02:37;98175.03;;;33.92
66180;BMP280;52986;44.028;20.466;2023-07-16T07:05:02;98173.19;;;34.08
66180;BMP280;52986;44.028;20.466;2023-07-16T07:07:28;98170.88;;;34.53
66180;BMP280;52986;44.028;20.466;2023-07-16T07:09:53;98171.44;;;34.38
66180;BMP280;52986;44.028;20.466;2023-07-16T07:12:18;98160.69;;;34.70
66180;BMP280;52986;44.028;20.466;2023-07-16T07:14:44;98161.09;;;35.03
66180;BMP280;52986;44.028;20.466;2023-07-16T07:17:09;98159.00;;;35.15
66180;BMP280;52986;44.028;20.466;2023-07-16T07:19:35;98165.59;;;35.22
66180;BMP280;52986;44.028;20.466;2023-07-16T07:22:00;98167.56;;;35.33
66180;BMP280;52986;44.028;20.466;2023-07-16T07:24:25;98165.41;;;35.31
66180;BMP280;52986;44.028;20.466;2023-07-16T07:26:51;98168.53;;;35.51
66180;BMP280;52986;44.028;20.466;2023-07-16T07:29:16;98168.94;;;36.00
66180;BMP280;52986;44.028;20.466;2023-07-16T07:31:42;98176.69;;;37.19
66180;BMP280;52986;44.028;20.466;2023-07-16T07:34:07;98168.47;;;38.38
66180;BMP280;52986;44.028;20.466;2023-07-16T07:36:32;98163.97;;;39.43
66180;BMP280;52986;44.028;20.466;2023-07-16T07:38:58;98174.06;;;40.16
66180;BMP280;52986;44.028;20.466;2023-07-16T07:41:23;98167.81;;;41.38
66180;BMP280;52986;44.028;20.466;2023-07-16T07:43:48;98170.88;;;41.76
66180;BMP280;52986;44.028;20.466;2023-07-16T07:46:14;98172.94;;;41.73
66180;BMP280;52986;44.028;20.466;2023-07-16T07:48:39;98178.03;;;43.10
66180;BMP280;52986;44.028;20.466;2023-07-16T07:51:04;98181.88;;;42.23
66180;BMP280;52986;44.028;20.466;2023-07-16T07:53:30;98190.59;;;43.03
66180;BMP280;52986;44.028;20.466;2023-07-16T07:55:55;98178.13;;;44.00
66180;BMP280;52986;44.028;20.466;2023-07-16T07:58:20;98178.34;;;44.68
66180;BMP280;52986;44.028;20.466;2023-07-16T08:00:46;98179.84;;;44.19
66180;BMP280;52986;44.028;20.466;2023-07-16T08:03:11;98187.59;;;43.30
66180;BMP280;52986;44.028;20.466;2023-07-16T08:05:37;98183.59;;;43.87
66180;BMP280;52986;44.028;20.466;2023-07-16T08:08:02;98186.13;;;44.13
66180;BMP280;52986;44.028;20.466;2023-07-16T08:10:28;98188.53;;;44.35
66180;BMP280;52986;44.028;20.466;2023-07-16T08:12:53;98199.94;;;43.49
66180;BMP280;52986;44.028;20.466;2023-07-16T08:15:18;98192.50;;;44.14
66180;BMP280;52986;44.028;20.466;2023-07-16T08:17:45;98190.06;;;43.94
66180;BMP280;52986;44.028;20.466;2023-07-16T08:20:11;98195.75;;;43.96
66180;BMP280;52986;44.028;20.466;2023-07-16T08:22:37;98206.91;;;44.36
66180;BMP280;52986;44.028;20.466;2023-07-16T08:25:04;98208.75;;;43.69
66180;BMP280;52986;44.028;20.466;2023-07-16T08:27:30;98210.00;;;43.60
66180;BMP280;52986;44.028;20.466;2023-07-16T08:29:55;98208.69;;;43.25
66180;BMP280;52986;44.028;20.466;2023-07-16T08:32:21;98209.97;;;43.58
66180;BMP280;52986;44.028;20.466;2023-07-16T08:34:47;98210.38;;;43.41
66180;BMP280;52986;44.028;20.466;2023-07-16T08:37:13;98213.78;;;43.35
66180;BMP280;52986;44.028;20.466;2023-07-16T08:39:38;98207.03;;;43.14
66180;BMP280;52986;44.028;20.466;2023-07-16T08:42:04;98206.03;;;42.98
66180;BMP280;52986;44.028;20.466;2023-07-16T08:44:30;98210.31;;;43.01
66180;BMP280;52986;44.028;20.466;2023-07-16T08:46:55;98208.78;;;42.94
66180;BMP280;52986;44.028;20.466;2023-07-16T08:49:22;98209.72;;;43.06
66180;BMP280;52986;44.028;20.466;2023-07-16T08:51:48;98208.34;;;43.09
66180;BMP280;52986;44.028;20.466;2023-07-16T08:54:14;98212.09;;;43.60
66180;BMP280;52986;44.028;20.466;2023-07-16T08:56:44;98214.03;;;43.49
66180;BMP280;52986;44.028;20.466;2023-07-16T08:59:10;98218.06;;;43.38
66180;BMP280;52986;44.028;20.466;2023-07-16T09:01:37;98220.84;;;42.64
66180;BMP280;52986;44.028;20.466;2023-07-16T09:04:02;98221.94;;;43.19
66180;BMP280;52986;44.028;20.466;2023-07-16T09:06:28;98221.78;;;43.49
66180;BMP280;52986;44.028;20.466;2023-07-16T09:08:53;98209.47;;;43.72
66180;BMP280;52986;44.028;20.466;2023-07-16T09:11:18;98212.91;;;44.08
66180;BMP280;52986;44.028;20.466;2023-07-16T09:13:46;98217.47;;;44.31
66180;BMP280;52986;44.028;20.466;2023-07-16T09:16:12;98218.38;;;43.96
66180;BMP280;52986;44.028;20.466;2023-07-16T09:18:40;98207.91;;;44.05
66180;BMP280;52986;44.028;20.466;2023-07-16T09:21:06;98213.31;;;44.36
66180;BMP280;52986;44.028;20.466;2023-07-16T09:23:32;98207.19;;;44.04
66180;BMP280;52986;44.028;20.466;2023-07-16T09:25:58;98216.22;;;44.42
66180;BMP280;52986;44.028;20.466;2023-07-16T09:28:24;98203.53;;;45.08
66180;BMP280;52986;44.028;20.466;2023-07-16T09:30:53;98208.28;;;45.59
66180;BMP280;52986;44.028;20.466;2023-07-16T09:33:20;98207.44;;;45.48
66180;BMP280;52986;44.028;20.466;2023-07-16T09:35:48;98209.34;;;46.16
66180;BMP280;52986;44.028;20.466;2023-07-16T09:38:14;98210.00;;;46.00
66180;BMP280;52986;44.028;20.466;2023-07-16T09:40:40;98201.78;;;46.69
66180;BMP280;52986;44.028;20.466;2023-07-16T09:43:09;98200.44;;;47.04
66180;BMP280;52986;44.028;20.466;2023-07-16T09:45:35;98186.25;;;46.98
66180;BMP280;52986;44.028;20.466;2023-07-16T09:48:01;98200.44;;;47.10
66180;BMP280;52986;44.028;20.466;2023-07-16T09:50:32;98196.91;;;47.42
66180;BMP280;52986;44.028;20.466;2023-07-16T09:52:58;98191.91;;;47.87
66180;BMP280;52986;44.028;20.466;2023-07-16T09:55:24;98197.31;;;48.57
66180;BMP280;52986;44.028;20.466;2023-07-16T09:57:52;98188.84;;;48.37
66180;BMP280;52986;44.028;20.466;2023-07-16T10:00:19;98188.78;;;48.53
66180;BMP280;52986;44.028;20.466;2023-07-16T10:02:46;98179.13;;;47.78
66180;BMP280;52986;44.028;20.466;2023-07-16T10:05:20;98180.03;;;48.84
66180;BMP280;52986;44.028;20.466;2023-07-16T10:07:54;98172.09;;;48.98
66180;BMP280;52986;44.028;20.466;2023-07-16T10:10:20;98178.97;;;48.26
66180;BMP280;52986;44.028;20.466;2023-07-16T10:13:01;98165.25;;;48.61
66180;BMP280;52986;44.028;20.466;2023-07-16T10:15:30;98168.28;;;49.30
66180;BMP280;52986;44.028;20.466;2023-07-16T10:17:56;98173.94;;;49.36
66180;BMP280;52986;44.028;20.466;2023-07-16T10:20:36;98169.59;;;49.41
66180;BMP280;52986;44.028;20.466;2023-07-16T10:23:15;98165.50;;;49.24
66180;BMP280;52986;44.028;20.466;2023-07-16T10:25:57;98162.13;;;49.74
66180;BMP280;52986;44.028;20.466;2023-07-16T10:28:22;98164.66;;;49.37
66180;BMP280;52986;44.028;20.466;2023-07-16T10:30:49;98167.34;;;48.66
66180;BMP280;52986;44.028;20.466;2023-07-16T10:33:15;98167.28;;;48.77
66180;BMP280;52986;44.028;20.466;2023-07-16T10:35:49;98166.84;;;48.30
66180;BMP280;52986;44.028;20.466;2023-07-16T10:38:15;98167.81;;;47.45
66180;BMP280;52986;44.028;20.466;2023-07-16T10:40:45;98168.50;;;47.54
66180;BMP280;52986;44.028;20.466;2023-07-16T10:43:11;98153.59;;;46.99
66180;BMP280;52986;44.028;20.466;2023-07-16T10:45:36;98153.50;;;46.51
66180;BMP280;52986;44.028;20.466;2023-07-16T10:48:02;98155.66;;;46.56
66180;BMP280;52986;44.028;20.466;2023-07-16T10:50:27;98149.97;;;46.56
66180;BMP280;52986;44.028;20.466;2023-07-16T10:52:53;98147.75;;;46.25
66180;BMP280;52986;44.028;20.466;2023-07-16T10:55:19;98150.22;;;45.66
66180;BMP280;52986;44.028;20.466;2023-07-16T10:57:47;98149.94;;;45.26
66180;BMP280;52986;44.028;20.466;2023-07-16T11:00:15;98149.44;;;45.53
66180;BMP280;52986;44.028;20.466;2023-07-16T11:02:40;98140.38;;;44.89
66180;BMP280;52986;44.028;20.466;2023-07-16T11:05:11;98139.22;;;45.18
66180;BMP280;52986;44.028;20.466;2023-07-16T11:07:37;98146.69;;;45.66
66180;BMP280;52986;44.028;20.466;2023-07-16T11:10:02;98139.50;;;45.52
66180;BMP280;52986;44.028;20.466;2023-07-16T11:12:28;98134.81;;;45.87
66180;BMP280;52986;44.028;20.466;2023-07-16T11:14:55;98132.16;;;46.30
66180;BMP280;52986;44.028;20.466;2023-07-16T11:17:22;98140.63;;;46.28
66180;BMP280;52986;44.028;20.466;2023-07-16T11:19:48;98136.47;;;46.43
66180;BMP280;52986;44.028;20.466;2023-07-16T11:22:15;98137.16;;;46.49
66180;BMP280;52986;44.028;20.466;2023-07-16T11:24:45;98132.31;;;47.02
66180;BMP280;52986;44.028;20.466;2023-07-16T11:27:18;98126.59;;;46.82
66180;BMP280;52986;44.028;20.466;2023-07-16T11:29:47;98130.88;;;47.21
66180;BMP280;52986;44.028;20.466;2023-07-16T11:32:25;98127.34;;;47.01
66180;BMP280;52986;44.028;20.466;2023-07-16T11:34:55;98124.47;;;47.45
66180;BMP280;52986;44.028;20.466;2023-07-16T11:37:20;98122.38;;;47.03
66180;BMP280;52986;44.028;20.466;2023-07-16T11:39:48;98118.03;;;47.71
66180;BMP280;52986;44.028;20.466;2023-07-16T11:42:17;98118.09;;;47.34
66180;BMP280;52986;44.028;20.466;2023-07-16T11:44:48;98122.31;;;46.75
66180;BMP280;52986;44.028;20.466;2023-07-16T11:47:15;98121.75;;;45.42
66180;BMP280;52986;44.028;20.466;2023-07-16T11:49:40;98128.22;;;44.16
66180;BMP280;52986;44.028;20.466;2023-07-16T11:52:06;98118.94;;;43.18
66180;BMP280;52986;44.028;20.466;2023-07-16T11:54:32;98130.53;;;42.27
66180;BMP280;52986;44.028;20.466;2023-07-16T11:56:57;98122.38;;;41.49
66180;BMP280;52986;44.028;20.466;2023-07-16T11:59:23;98119.88;;;41.06
66180;BMP280;52986;44.028;20.466;2023-07-16T12:01:48;98120.53;;;40.81
66180;BMP280;52986;44.028;20.466;2023-07-16T12:04:15;98118.94;;;40.74
66180;BMP280;52986;44.028;20.466;2023-07-16T12:06:41;98114.47;;;40.65
66180;BMP280;52986;44.028;20.466;2023-07-16T12:09:06;98112.91;;;40.12
66180;BMP280;52986;44.028;20.466;2023-07-16T12:11:32;98120.53;;;40.10
66180;BMP280;52986;44.028;20.466;2023-07-16T12:13:57;98111.22;;;39.81
66180;BMP280;52986;44.028;20.466;2023-07-16T12:16:22;98111.47;;;40.11
66180;BMP280;52986;44.028;20.466;2023-07-16T12:18:48;98110.16;;;40.38
66180;BMP280;52986;44.028;20.466;2023-07-16T12:21:13;98110.16;;;40.14
66180;BMP280;52986;44.028;20.466;2023-07-16T12:23:38;98108.72;;;39.91
66180;BMP280;52986;44.028;20.466;2023-07-16T12:26:04;98104.69;;;39.75
66180;BMP280;52986;44.028;20.466;2023-07-16T12:28:29;98108.13;;;39.73
66180;BMP280;52986;44.028;20.466;2023-07-16T12:30:54;98106.69;;;39.72
66180;BMP280;52986;44.028;20.466;2023-07-16T12:33:20;98105.25;;;39.49
66180;BMP280;52986;44.028;20.466;2023-07-16T12:35:45;98103.63;;;39.23
66180;BMP280;52986;44.028;20.466;2023-07-16T12:38:12;98101.34;;;38.97
66180;BMP280;52986;44.028;20.466;2023-07-16T12:40:37;98099.59;;;38.69
66180;BMP280;52986;44.028;20.466;2023-07-16T12:43:11;98103.50;;;38.24
66180;BMP280;52986;44.028;20.466;2023-07-16T12:45:37;98100.94;;;37.95
66180;BMP280;52986;44.028;20.466;2023-07-16T12:48:02;98108.16;;;37.67
66180;BMP280;52986;44.028;20.466;2023-07-16T12:50:28;98100.44;;;37.49
66180;BMP280;52986;44.028;20.466;2023-07-16T12:52:54;98109.63;;;37.52
66180;BMP280;52986;44.028;20.466;2023-07-16T12:55:20;98099.63;;;37.80
66180;BMP280;52986;44.028;20.466;2023-07-16T12:57:45;98092.19;;;37.87
66180;BMP280;52986;44.028;20.466;2023-07-16T13:00:11;98092.63;;;37.97
66180;BMP280;52986;44.028;20.466;2023-07-16T13:02:38;98095.59;;;38.01
66180;BMP280;52986;44.028;20.466;2023-07-16T13:05:04;98095.66;;;38.03
66180;BMP280;52986;44.028;20.466;2023-07-16T13:07:30;98101.31;;;38.05
66180;BMP280;52986;44.028;20.466;2023-07-16T13:09:57;98100.22;;;37.94
66180;BMP280;52986;44.028;20.466;2023-07-16T13:12:22;98101.00;;;37.97
66180;BMP280;52986;44.028;20.466;2023-07-16T13:14:47;98099.41;;;38.10
66180;BMP280;52986;44.028;20.466;2023-07-16T13:17:13;98099.56;;;37.96
66180;BMP280;52986;44.028;20.466;2023-07-16T13:19:40;98098.41;;;37.68
66180;BMP280;52986;44.028;20.466;2023-07-16T13:22:05;98103.41;;;37.53
66180;BMP280;52986;44.028;20.466;2023-07-16T13:24:31;98100.34;;;37.47
66180;BMP280;52986;44.028;20.466;2023-07-16T13:26:56;98099.06;;;37.50
66180;BMP280;52986;44.028;20.466;2023-07-16T13:29:21;98090.78;;;37.52
66180;BMP280;52986;44.028;20.466;2023-07-16T13:31:47;98091.25;;;37.47
66180;BMP280;52986;44.028;20.466;2023-07-16T13:34:12;98099.78;;;37.33
66180;BMP280;52986;44.028;20.466;2023-07-16T13:36:38;98092.66;;;37.15
66180;BMP280;52986;44.028;20.466;2023-07-16T13:39:04;98084.16;;;36.97
66180;BMP280;52986;44.028;20.466;2023-07-16T13:41:30;98086.69;;;36.91
66180;BMP280;52986;44.028;20.466;2023-07-16T13:43:55;98091.38;;;37.02
66180;BMP280;52986;44.028;20.466;2023-07-16T13:46:21;98092.09;;;37.02
66180;BMP280;52986;44.028;20.466;2023-07-16T13:48:46;98084.44;;;37.19
66180;BMP280;52986;44.028;20.466;2023-07-16T13:51:11;98080.31;;;37.04
66180;BMP280;52986;44.028;20.466;2023-07-16T13:53:37;98075.88;;;36.99
66180;BMP280;52986;44.028;20.466;2023-07-16T13:56:02;98086.16;;;36.94